createdAt,value
2018-02-01T00:00:22.254Z,5.08
2018-02-01T00:00:48.537Z,5.08
2018-02-01T00:01:14.739Z,5.02
2018-02-01T00:01:40.977Z,5.02
2018-02-01T00:02:07.073Z,5.05
2018-02-01T00:02:33.212Z,5.02
2018-02-01T00:02:59.321Z,5
2018-02-01T00:03:25.614Z,4.9
2018-02-01T00:03:51.709Z,4.89
2018-02-01T00:04:17.893Z,4.86
2018-02-01T00:04:44.130Z,4.93
2018-02-01T00:05:10.460Z,4.92
2018-02-01T00:05:36.965Z,5
2018-02-01T00:06:03.031Z,4.97
2018-02-01T00:06:29.153Z,5.05
2018-02-01T00:06:55.624Z,4.99
2018-02-01T00:07:21.916Z,5.05
2018-02-01T00:07:48.025Z,5
2018-02-01T00:08:14.546Z,5.07
2018-02-01T00:08:40.580Z,5.02
2018-02-01T00:09:06.728Z,4.99
2018-02-01T00:09:32.878Z,4.97
2018-02-01T00:09:59.218Z,4.89
2018-02-01T00:10:25.438Z,5.05
2018-02-01T00:10:51.572Z,4.9
2018-02-01T00:11:17.713Z,4.9
2018-02-01T00:11:43.842Z,4.9
2018-02-01T00:12:10.459Z,5.02
2018-02-01T00:12:36.586Z,4.87
2018-02-01T00:13:02.842Z,4.9
2018-02-01T00:13:28.970Z,4.82
2018-02-01T00:13:55.075Z,4.78
2018-02-01T00:14:21.197Z,4.9
2018-02-01T00:14:47.603Z,4.8
2018-02-01T00:15:13.786Z,4.9
2018-02-01T00:15:40.021Z,5
2018-02-01T00:16:06.219Z,5.07
2018-02-01T00:16:32.464Z,5.07
2018-02-01T00:16:59.570Z,5.05
2018-02-01T00:17:25.663Z,4.99
2018-02-01T00:17:51.945Z,5.07
2018-02-01T00:18:18.360Z,4.96
2018-02-01T00:18:44.691Z,4.94
2018-02-01T00:19:10.873Z,4.89
2018-02-01T00:19:36.995Z,4.94
2018-02-01T00:20:03.165Z,4.8
2018-02-01T00:20:29.375Z,4.77
2018-02-01T00:20:55.486Z,4.71
2018-02-01T00:21:21.673Z,4.73
2018-02-01T00:21:47.977Z,4.78
2018-02-01T00:22:14.077Z,4.82
2018-02-01T00:22:40.178Z,4.82
2018-02-01T00:23:06.279Z,4.77
2018-02-01T00:23:32.376Z,4.82
2018-02-01T00:23:58.481Z,4.77
2018-02-01T00:24:24.580Z,4.7
2018-02-01T00:24:50.694Z,4.74
2018-02-01T00:25:16.790Z,4.8
2018-02-01T00:25:42.896Z,4.8
2018-02-01T00:26:09.005Z,4.78
2018-02-01T00:26:35.106Z,4.75
2018-02-01T00:27:01.204Z,4.8
2018-02-01T00:27:27.316Z,4.84
2018-02-01T00:27:53.413Z,4.78
2018-02-01T00:28:19.527Z,4.86
2018-02-01T00:28:45.630Z,4.74
2018-02-01T00:29:11.733Z,4.77
2018-02-01T00:29:37.843Z,4.67
2018-02-01T00:30:03.965Z,4.63
2018-02-01T00:30:30.070Z,4.73
2018-02-01T00:30:56.171Z,4.73
2018-02-01T00:31:22.281Z,4.67
2018-02-01T00:31:48.398Z,4.73
2018-02-01T00:32:14.499Z,4.7
2018-02-01T00:32:40.618Z,4.56
2018-02-01T00:33:06.716Z,4.53
2018-02-01T00:33:32.826Z,4.53
2018-02-01T00:33:58.924Z,4.6
2018-02-01T00:34:25.036Z,4.62
2018-02-01T00:34:51.134Z,4.59
2018-02-01T00:35:17.239Z,4.58
2018-02-01T00:35:43.333Z,4.6
2018-02-01T00:36:09.434Z,4.59
2018-02-01T00:36:35.534Z,4.68
2018-02-01T00:37:01.654Z,4.53
2018-02-01T00:37:27.747Z,4.58
2018-02-01T00:37:53.848Z,4.56
2018-02-01T00:38:19.951Z,4.7
2018-02-01T00:38:46.046Z,4.5
2018-02-01T00:39:12.145Z,4.49
2018-02-01T00:39:38.246Z,4.48
2018-02-01T00:40:04.352Z,4.49
2018-02-01T00:40:30.445Z,4.48
2018-02-01T00:40:56.563Z,4.44
2018-02-01T00:41:22.659Z,4.49
2018-02-01T00:41:48.757Z,4.49
2018-02-01T00:42:14.871Z,4.58
2018-02-01T00:42:40.955Z,4.5
2018-02-01T00:43:07.073Z,4.42
2018-02-01T00:43:33.173Z,4.35
2018-02-01T00:43:59.277Z,4.45
2018-02-01T00:44:25.370Z,4.41
2018-02-01T00:44:51.475Z,4.45
2018-02-01T00:45:17.577Z,4.44
2018-02-01T00:45:43.673Z,4.52
2018-02-01T00:46:09.777Z,4.5
2018-02-01T00:46:35.871Z,4.52
2018-02-01T00:47:01.971Z,4.5
2018-02-01T00:47:28.066Z,4.52
2018-02-01T00:47:54.171Z,4.5
2018-02-01T00:48:20.271Z,4.48
2018-02-01T00:48:46.390Z,4.49
2018-02-01T00:49:12.492Z,4.52
2018-02-01T00:49:38.588Z,4.56
2018-02-01T00:50:04.686Z,4.58
2018-02-01T00:50:30.783Z,4.63
2018-02-01T00:50:56.879Z,4.7
2018-02-01T00:51:22.980Z,4.62
2018-02-01T00:51:49.084Z,4.6
2018-02-01T00:52:15.187Z,4.67
2018-02-01T00:52:41.290Z,4.71
2018-02-01T00:53:07.391Z,4.7
2018-02-01T00:53:33.496Z,4.67
2018-02-01T00:53:59.588Z,4.62
2018-02-01T00:54:25.682Z,4.77
2018-02-01T00:54:51.781Z,4.8
2018-02-01T00:55:17.883Z,4.75
2018-02-01T00:55:44.005Z,4.86
2018-02-01T00:56:10.104Z,4.77
2018-02-01T00:56:36.194Z,4.7
2018-02-01T00:57:02.294Z,4.78
2018-02-01T00:57:28.399Z,4.77
2018-02-01T00:57:54.513Z,4.74
2018-02-01T00:58:20.613Z,4.77
2018-02-01T00:58:46.710Z,4.74
2018-02-01T00:59:12.810Z,4.66
2018-02-01T00:59:38.907Z,4.56
2018-02-01T01:00:05.010Z,4.68
2018-02-01T01:00:31.107Z,4.67
2018-02-01T01:00:57.204Z,4.7
2018-02-01T01:01:23.307Z,4.74
2018-02-01T01:01:49.420Z,4.74
2018-02-01T01:02:15.524Z,4.67
2018-02-01T01:02:41.625Z,4.67
2018-02-01T01:03:07.719Z,4.67
2018-02-01T01:03:33.820Z,4.71
2018-02-01T01:03:59.921Z,4.67
2018-02-01T01:04:26.016Z,4.56
2018-02-01T01:04:52.118Z,4.6
2018-02-01T01:05:18.258Z,4.6
2018-02-01T01:05:44.354Z,4.59
2018-02-01T01:06:10.470Z,4.7
2018-02-01T01:06:36.584Z,4.53
2018-02-01T01:07:08.954Z,4.63
2018-02-01T01:07:35.055Z,4.68
2018-02-01T01:08:01.667Z,4.7
2018-02-01T01:08:27.893Z,4.7
2018-02-01T01:08:54.274Z,4.67
2018-02-01T01:09:20.604Z,4.63
2018-02-01T01:09:46.726Z,4.62
2018-02-01T01:10:13.164Z,4.55
2018-02-01T01:10:39.525Z,4.56
2018-02-01T01:11:05.900Z,4.67
2018-02-01T01:11:32.679Z,4.66
2018-02-01T01:11:58.733Z,4.7
2018-02-01T01:12:24.866Z,4.67
2018-02-01T01:12:51.805Z,4.75
2018-02-01T01:13:18.121Z,4.74
2018-02-01T01:13:44.457Z,4.63
2018-02-01T01:14:10.771Z,4.67
2018-02-01T01:14:36.895Z,4.63
2018-02-01T01:15:03.564Z,4.59
2018-02-01T01:15:29.671Z,4.59
2018-02-01T01:15:56.301Z,4.56
2018-02-01T01:16:22.406Z,4.58
2018-02-01T01:16:48.511Z,4.53
2018-02-01T01:17:15.099Z,4.56
2018-02-01T01:17:41.482Z,4.58
2018-02-01T01:18:07.976Z,4.49
2018-02-01T01:18:34.205Z,4.53
2018-02-01T01:19:00.228Z,4.55
2018-02-01T01:19:26.757Z,4.58
2018-02-01T01:19:53.086Z,4.6
2018-02-01T01:20:19.566Z,4.56
2018-02-01T01:20:45.980Z,4.45
2018-02-01T01:21:12.304Z,4.48
2018-02-01T01:21:38.661Z,4.53
2018-02-01T01:22:04.791Z,4.5
2018-02-01T01:22:31.269Z,4.49
2018-02-01T01:22:57.465Z,4.58
2018-02-01T01:23:23.506Z,4.5
2018-02-01T01:23:49.795Z,4.42
2018-02-01T01:24:16.243Z,4.35
2018-02-01T01:24:42.920Z,4.38
2018-02-01T01:25:09.009Z,4.4
2018-02-01T01:25:35.105Z,4.37
2018-02-01T01:26:01.491Z,4.49
2018-02-01T01:26:27.963Z,4.56
2018-02-01T01:26:54.828Z,4.48
2018-02-01T01:27:20.852Z,4.52
2018-02-01T01:27:46.946Z,4.49
2018-02-01T01:28:13.170Z,4.44
2018-02-01T01:28:39.815Z,4.5
2018-02-01T01:29:05.970Z,4.55
2018-02-01T01:29:32.145Z,4.52
2018-02-01T01:29:58.586Z,4.52
2018-02-01T01:30:25.110Z,4.49
2018-02-01T01:30:51.703Z,4.5
2018-02-01T01:31:18.133Z,4.56
2018-02-01T01:31:44.681Z,4.5
2018-02-01T01:32:11.035Z,4.49
2018-02-01T01:32:37.467Z,4.59
2018-02-01T01:33:03.652Z,4.53
2018-02-01T01:33:30.507Z,4.55
2018-02-01T01:33:56.940Z,4.53
2018-02-01T01:34:23.662Z,4.5
2018-02-01T01:34:49.802Z,4.5
2018-02-01T01:35:16.509Z,4.5
2018-02-01T01:35:42.930Z,4.48
2018-02-01T01:36:09.142Z,4.5
2018-02-01T01:36:35.588Z,4.48
2018-02-01T01:37:01.715Z,4.45
2018-02-01T01:37:28.016Z,4.52
2018-02-01T01:37:54.121Z,4.5
2018-02-01T01:38:20.586Z,4.45
2018-02-01T01:38:47.198Z,4.49
2018-02-01T01:39:13.349Z,4.44
2018-02-01T01:39:39.906Z,4.5
2018-02-01T01:40:05.928Z,4.52
2018-02-01T01:40:32.066Z,4.44
2018-02-01T01:40:58.230Z,4.52
2018-02-01T01:41:24.334Z,4.5
2018-02-01T01:41:50.875Z,4.44
2018-02-01T01:42:17.291Z,4.4
2018-02-01T01:42:43.438Z,4.44
2018-02-01T01:43:09.946Z,4.4
2018-02-01T01:43:36.368Z,4.41
2018-02-01T01:44:03.611Z,4.31
2018-02-01T01:44:30.286Z,4.48
2018-02-01T01:44:56.769Z,4.32
2018-02-01T01:45:22.813Z,4.32
2018-02-01T01:45:49.281Z,4.4
2018-02-01T01:46:15.671Z,4.4
2018-02-01T01:46:41.789Z,4.42
2018-02-01T01:47:08.301Z,4.49
2018-02-01T01:47:34.417Z,4.44
2018-02-01T01:48:00.839Z,4.45
2018-02-01T01:48:27.078Z,4.41
2018-02-01T01:48:53.356Z,4.5
2018-02-01T01:49:19.477Z,4.53
2018-02-01T01:49:45.645Z,4.48
2018-02-01T01:50:11.785Z,4.38
2018-02-01T01:50:37.950Z,4.48
2018-02-01T01:51:04.606Z,4.42
2018-02-01T01:51:30.723Z,4.38
2018-02-01T01:51:56.961Z,4.52
2018-02-01T01:52:23.067Z,4.35
2018-02-01T01:52:49.194Z,4.4
2018-02-01T01:53:15.756Z,4.31
2018-02-01T01:53:42.151Z,4.31
2018-02-01T01:54:08.251Z,4.38
2018-02-01T01:54:34.345Z,4.4
2018-02-01T01:55:00.450Z,4.31
2018-02-01T01:55:26.550Z,4.32
2018-02-01T01:55:52.644Z,4.31
2018-02-01T01:56:18.748Z,4.44
2018-02-01T01:56:44.880Z,4.41
2018-02-01T01:57:10.983Z,4.32
2018-02-01T01:57:37.081Z,4.37
2018-02-01T01:58:03.183Z,4.34
2018-02-01T01:58:29.279Z,4.35
2018-02-01T01:58:55.381Z,4.37
2018-02-01T01:59:21.485Z,4.37
2018-02-01T01:59:47.588Z,4.35
2018-02-01T02:00:13.687Z,4.31
2018-02-01T02:00:39.782Z,4.35
2018-02-01T02:01:05.887Z,4.45
2018-02-01T02:01:31.987Z,4.48
2018-02-01T02:01:58.085Z,4.3
2018-02-01T02:02:24.184Z,4.3
2018-02-01T02:02:50.289Z,4.32
2018-02-01T02:03:16.387Z,4.4
2018-02-01T02:03:42.500Z,4.41
2018-02-01T02:04:08.582Z,4.45
2018-02-01T02:04:34.688Z,4.45
2018-02-01T02:05:00.785Z,4.42
2018-02-01T02:05:26.907Z,4.44
2018-02-01T02:05:53.008Z,4.4
2018-02-01T02:06:19.109Z,4.37
2018-02-01T02:06:45.211Z,4.44
2018-02-01T02:07:11.309Z,4.37
2018-02-01T02:07:37.398Z,4.32
2018-02-01T02:08:03.501Z,4.32
2018-02-01T02:08:29.595Z,4.32
2018-02-01T02:08:55.696Z,4.38
2018-02-01T02:09:21.799Z,4.48
2018-02-01T02:09:47.896Z,4.32
2018-02-01T02:10:13.999Z,4.31
2018-02-01T02:10:40.096Z,4.45
2018-02-01T02:11:06.200Z,4.32
2018-02-01T02:11:32.300Z,4.35
2018-02-01T02:11:58.399Z,4.41
2018-02-01T02:12:24.503Z,4.5
2018-02-01T02:12:50.598Z,4.38
2018-02-01T02:13:16.698Z,4.28
2018-02-01T02:13:42.792Z,4.35
2018-02-01T02:14:08.914Z,4.34
2018-02-01T02:14:35.031Z,4.37
2018-02-01T02:15:01.135Z,4.31
2018-02-01T02:15:27.235Z,4.38
2018-02-01T02:15:53.334Z,4.28
2018-02-01T02:16:19.427Z,4.48
2018-02-01T02:16:45.531Z,4.42
2018-02-01T02:17:11.628Z,4.52
2018-02-01T02:17:37.731Z,4.42
2018-02-01T02:18:03.826Z,4.5
2018-02-01T02:18:29.939Z,4.45
2018-02-01T02:18:56.033Z,4.5
2018-02-01T02:19:22.129Z,4.52
2018-02-01T02:19:48.226Z,4.5
2018-02-01T02:20:14.330Z,4.52
2018-02-01T02:20:40.434Z,4.5
2018-02-01T02:21:06.546Z,4.53
2018-02-01T02:21:32.650Z,4.45
2018-02-01T02:21:58.746Z,4.34
2018-02-01T02:22:24.859Z,4.49
2018-02-01T02:22:50.948Z,4.45
2018-02-01T02:23:17.041Z,4.48
2018-02-01T02:23:43.147Z,4.53
2018-02-01T02:24:09.248Z,4.45
2018-02-01T02:24:35.346Z,4.44
2018-02-01T02:25:01.439Z,4.5
2018-02-01T02:25:27.541Z,4.48
2018-02-01T02:25:53.642Z,4.28
2018-02-01T02:26:19.737Z,4.37
2018-02-01T02:26:45.840Z,4.48
2018-02-01T02:27:11.939Z,4.4
2018-02-01T02:27:38.036Z,4.48
2018-02-01T02:28:04.144Z,4.45
2018-02-01T02:28:30.244Z,4.45
2018-02-01T02:28:56.342Z,4.44
2018-02-01T02:29:22.461Z,4.38
2018-02-01T02:29:48.563Z,4.52
2018-02-01T02:30:14.679Z,4.35
2018-02-01T02:30:40.793Z,4.38
2018-02-01T02:31:06.895Z,4.42
2018-02-01T02:31:33.004Z,4.45
2018-02-01T02:31:59.116Z,4.42
2018-02-01T02:32:25.207Z,4.44
2018-02-01T02:32:51.309Z,4.53
2018-02-01T02:33:17.431Z,4.48
2018-02-01T02:33:43.535Z,4.42
2018-02-01T02:34:09.635Z,4.45
2018-02-01T02:34:35.737Z,4.44
2018-02-01T02:35:01.842Z,4.37
2018-02-01T02:35:27.942Z,4.48
2018-02-01T02:35:54.052Z,4.5
2018-02-01T02:36:20.156Z,4.42
2018-02-01T02:36:46.266Z,4.5
2018-02-01T02:37:12.369Z,4.42
2018-02-01T02:37:38.489Z,4.52
2018-02-01T02:38:04.586Z,4.44
2018-02-01T02:38:30.692Z,4.5
2018-02-01T02:38:56.791Z,4.45
2018-02-01T02:39:22.900Z,4.48
2018-02-01T02:39:49.004Z,4.42
2018-02-01T02:40:15.102Z,4.41
2018-02-01T02:40:41.208Z,4.48
2018-02-01T02:41:07.308Z,4.42
2018-02-01T02:41:33.409Z,4.55
2018-02-01T02:41:59.536Z,4.38
2018-02-01T02:42:25.640Z,4.35
2018-02-01T02:42:51.742Z,4.4
2018-02-01T02:43:17.881Z,4.35
2018-02-01T02:43:43.981Z,4.4
2018-02-01T02:44:10.084Z,4.4
2018-02-01T02:44:36.194Z,4.38
2018-02-01T02:45:02.318Z,4.32
2018-02-01T02:45:28.415Z,4.34
2018-02-01T02:45:54.524Z,4.4
2018-02-01T02:46:20.644Z,4.32
2018-02-01T02:46:46.742Z,4.44
2018-02-01T02:47:12.848Z,4.32
2018-02-01T02:47:38.946Z,4.37
2018-02-01T02:48:05.055Z,4.37
2018-02-01T02:48:31.159Z,4.38
2018-02-01T02:48:57.262Z,4.37
2018-02-01T02:49:23.361Z,4.3
2018-02-01T02:49:49.469Z,4.38
2018-02-01T02:50:15.571Z,4.35
2018-02-01T02:50:41.679Z,4.37
2018-02-01T02:51:07.776Z,4.48
2018-02-01T02:51:33.878Z,4.38
2018-02-01T02:52:00.053Z,4.32
2018-02-01T02:52:26.079Z,4.38
2018-02-01T02:52:52.188Z,4.44
2018-02-01T02:53:18.292Z,4.32
2018-02-01T02:53:44.393Z,4.34
2018-02-01T02:54:10.493Z,4.41
2018-02-01T02:54:36.588Z,4.44
2018-02-01T02:55:02.685Z,4.41
2018-02-01T02:55:28.786Z,4.35
2018-02-01T02:55:54.886Z,4.41
2018-02-01T02:56:20.992Z,4.31
2018-02-01T02:56:47.081Z,4.38
2018-02-01T02:57:13.183Z,4.42
2018-02-01T02:57:39.303Z,4.4
2018-02-01T02:58:05.396Z,4.4
2018-02-01T02:58:31.504Z,4.23
2018-02-01T02:58:57.619Z,4.37
2018-02-01T02:59:23.726Z,4.22
2018-02-01T02:59:49.817Z,4.31
2018-02-01T03:00:15.917Z,4.28
2018-02-01T03:00:42.013Z,4.24
2018-02-01T03:01:08.116Z,4.34
2018-02-01T03:01:34.213Z,4.32
2018-02-01T03:02:00.317Z,4.35
2018-02-01T03:02:26.422Z,4.24
2018-02-01T03:02:52.512Z,4.19
2018-02-01T03:03:18.605Z,4.24
2018-02-01T03:03:44.708Z,4.22
2018-02-01T03:04:10.810Z,4.31
2018-02-01T03:04:36.908Z,4.3
2018-02-01T03:05:03.016Z,4.3
2018-02-01T03:05:29.110Z,4.2
2018-02-01T03:05:55.214Z,4.24
2018-02-01T03:06:21.330Z,4.34
2018-02-01T03:06:47.434Z,4.23
2018-02-01T03:07:13.529Z,4.24
2018-02-01T03:07:39.635Z,4.3
2018-02-01T03:08:05.732Z,4.28
2018-02-01T03:08:31.827Z,4.23
2018-02-01T03:08:57.930Z,4.23
2018-02-01T03:09:24.026Z,4.28
2018-02-01T03:09:50.126Z,4.22
2018-02-01T03:10:16.221Z,4.19
2018-02-01T03:10:42.337Z,4.32
2018-02-01T03:11:08.442Z,4.16
2018-02-01T03:11:34.538Z,4.19
2018-02-01T03:12:00.640Z,4.16
2018-02-01T03:12:26.741Z,4.31
2018-02-01T03:12:52.839Z,4.2
2018-02-01T03:13:18.948Z,4.35
2018-02-01T03:13:45.040Z,4.34
2018-02-01T03:14:11.140Z,4.2
2018-02-01T03:14:37.244Z,4.17
2018-02-01T03:15:03.347Z,4.22
2018-02-01T03:15:29.452Z,4.19
2018-02-01T03:15:55.570Z,4.22
2018-02-01T03:16:21.670Z,4.22
2018-02-01T03:16:47.764Z,4.17
2018-02-01T03:17:13.865Z,4.2
2018-02-01T03:17:39.973Z,4.23
2018-02-01T03:18:06.063Z,4.24
2018-02-01T03:18:32.160Z,4.3
2018-02-01T03:18:58.257Z,4.35
2018-02-01T03:19:24.360Z,4.35
2018-02-01T03:19:50.458Z,4.23
2018-02-01T03:20:16.562Z,4.22
2018-02-01T03:20:42.663Z,4.28
2018-02-01T03:21:08.764Z,4.14
2018-02-01T03:21:34.857Z,4.2
2018-02-01T03:22:00.954Z,4.19
2018-02-01T03:22:27.059Z,4.19
2018-02-01T03:22:53.167Z,4.3
2018-02-01T03:23:19.271Z,4.23
2018-02-01T03:23:45.367Z,4.19
2018-02-01T03:24:11.469Z,4.2
2018-02-01T03:24:37.565Z,4.19
2018-02-01T03:25:03.662Z,4.22
2018-02-01T03:25:29.763Z,4.28
2018-02-01T03:25:55.859Z,4.26
2018-02-01T03:26:21.975Z,4.28
2018-02-01T03:26:48.075Z,4.28
2018-02-01T03:27:14.175Z,4.26
2018-02-01T03:27:40.293Z,4.26
2018-02-01T03:28:06.392Z,4.2
2018-02-01T03:28:32.496Z,4.19
2018-02-01T03:28:58.595Z,4.16
2018-02-01T03:29:24.707Z,4.31
2018-02-01T03:29:50.794Z,4.31
2018-02-01T03:30:16.911Z,4.16
2018-02-01T03:30:43.010Z,4.16
2018-02-01T03:31:09.108Z,4.23
2018-02-01T03:31:35.208Z,4.2
2018-02-01T03:32:01.311Z,4.31
2018-02-01T03:32:27.403Z,4.1
2018-02-01T03:32:53.501Z,4.06
2018-02-01T03:33:19.605Z,4.17
2018-02-01T03:33:45.701Z,4.14
2018-02-01T03:34:11.823Z,4.19
2018-02-01T03:34:37.914Z,4.16
2018-02-01T03:35:04.018Z,4.22
2018-02-01T03:35:30.120Z,4.13
2018-02-01T03:35:56.227Z,4.14
2018-02-01T03:36:22.325Z,4.08
2018-02-01T03:36:48.426Z,4.12
2018-02-01T03:37:14.541Z,4.08
2018-02-01T03:37:40.724Z,4.1
2018-02-01T03:38:06.821Z,4.05
2018-02-01T03:38:32.925Z,4.1
2018-02-01T03:38:59.023Z,4.06
2018-02-01T03:39:25.126Z,4.12
2018-02-01T03:39:51.223Z,4.13
2018-02-01T03:40:17.324Z,4.13
2018-02-01T03:40:43.418Z,4.16
2018-02-01T03:41:09.517Z,4.16
2018-02-01T03:41:35.613Z,4.04
2018-02-01T03:42:01.721Z,4.12
2018-02-01T03:42:27.813Z,4.1
2018-02-01T03:42:53.915Z,4.06
2018-02-01T03:43:20.012Z,4.08
2018-02-01T03:43:46.114Z,4.01
2018-02-01T03:44:12.215Z,4.05
2018-02-01T03:44:38.316Z,4.12
2018-02-01T03:45:04.417Z,4.16
2018-02-01T03:45:30.519Z,4.13
2018-02-01T03:45:56.618Z,4.1
2018-02-01T03:46:22.714Z,4.12
2018-02-01T03:46:48.812Z,4.05
2018-02-01T03:47:14.925Z,4.04
2018-02-01T03:47:41.078Z,4.05
2018-02-01T03:48:07.173Z,4.06
2018-02-01T03:48:33.273Z,3.98
2018-02-01T03:48:59.378Z,3.98
2018-02-01T03:49:25.497Z,3.98
2018-02-01T03:49:51.607Z,3.95
2018-02-01T03:50:17.705Z,3.92
2018-02-01T03:50:43.808Z,3.96
2018-02-01T03:51:09.911Z,4.02
2018-02-01T03:51:36.038Z,4.06
2018-02-01T03:52:02.134Z,4.1
2018-02-01T03:52:28.234Z,4.05
2018-02-01T03:52:54.331Z,4.05
2018-02-01T03:53:20.451Z,4.05
2018-02-01T03:53:46.590Z,4.05
2018-02-01T03:54:12.681Z,4.08
2018-02-01T03:54:38.797Z,4.1
2018-02-01T03:55:04.920Z,4.05
2018-02-01T03:55:31.021Z,4.04
2018-02-01T03:55:57.128Z,4.06
2018-02-01T03:56:23.244Z,4.05
2018-02-01T03:56:49.348Z,4.1
2018-02-01T03:57:15.485Z,4.08
2018-02-01T03:57:41.591Z,4.1
2018-02-01T03:58:07.695Z,4.08
2018-02-01T03:58:33.800Z,4.13
2018-02-01T03:58:59.900Z,4.13
2018-02-01T03:59:26.017Z,4.1
2018-02-01T03:59:52.112Z,4.02
2018-02-01T04:00:18.214Z,4.04
2018-02-01T04:00:44.314Z,4.04
2018-02-01T04:01:10.417Z,4.04
2018-02-01T04:01:36.567Z,3.98
2018-02-01T04:02:02.670Z,3.98
2018-02-01T04:02:28.769Z,4.01
2018-02-01T04:02:54.912Z,3.95
2018-02-01T04:03:21.034Z,3.94
2018-02-01T04:03:47.221Z,3.95
2018-02-01T04:04:13.357Z,3.99
2018-02-01T04:04:39.452Z,3.99
2018-02-01T04:05:05.667Z,3.95
2018-02-01T04:05:31.800Z,4.02
2018-02-01T04:05:57.980Z,4.05
2018-02-01T04:06:24.132Z,3.95
2018-02-01T04:06:50.280Z,3.99
2018-02-01T04:07:16.428Z,4.02
2018-02-01T04:07:42.598Z,4.02
2018-02-01T04:08:08.768Z,3.99
2018-02-01T04:08:34.905Z,3.96
2018-02-01T04:09:01.098Z,4.06
2018-02-01T04:09:27.263Z,3.96
2018-02-01T04:09:53.390Z,3.88
2018-02-01T04:10:19.541Z,3.96
2018-02-01T04:10:45.684Z,3.98
2018-02-01T04:11:11.802Z,3.86
2018-02-01T04:11:37.906Z,3.87
2018-02-01T04:12:03.999Z,3.91
2018-02-01T04:12:30.110Z,3.96
2018-02-01T04:12:56.249Z,3.94
2018-02-01T04:13:22.343Z,4.04
2018-02-01T04:13:48.446Z,4.08
2018-02-01T04:14:14.540Z,4.02
2018-02-01T04:14:40.651Z,3.95
2018-02-01T04:15:06.773Z,3.96
2018-02-01T04:15:32.876Z,3.99
2018-02-01T04:15:58.971Z,3.95
2018-02-01T04:16:25.081Z,3.98
2018-02-01T04:16:51.195Z,3.95
2018-02-01T04:17:17.300Z,3.96
2018-02-01T04:17:43.408Z,3.83
2018-02-01T04:18:09.497Z,3.86
2018-02-01T04:18:35.665Z,3.8
2018-02-01T04:19:01.753Z,3.77
2018-02-01T04:19:27.855Z,3.8
2018-02-01T04:19:53.946Z,3.92
2018-02-01T04:20:20.049Z,3.8
2018-02-01T04:20:46.178Z,3.87
2018-02-01T04:21:12.299Z,3.91
2018-02-01T04:21:38.394Z,3.86
2018-02-01T04:22:04.497Z,3.88
2018-02-01T04:22:30.605Z,3.83
2018-02-01T04:22:56.789Z,3.83
2018-02-01T04:23:22.893Z,3.88
2018-02-01T04:23:48.988Z,3.86
2018-02-01T04:24:15.082Z,3.91
2018-02-01T04:24:41.216Z,3.77
2018-02-01T04:25:07.315Z,3.76
2018-02-01T04:25:33.419Z,3.78
2018-02-01T04:25:59.522Z,3.8
2018-02-01T04:26:25.645Z,3.86
2018-02-01T04:26:51.751Z,3.86
2018-02-01T04:27:17.854Z,3.91
2018-02-01T04:27:43.953Z,3.83
2018-02-01T04:28:10.054Z,3.86
2018-02-01T04:28:36.163Z,3.88
2018-02-01T04:29:02.310Z,3.78
2018-02-01T04:29:28.430Z,3.88
2018-02-01T04:29:54.524Z,3.84
2018-02-01T04:30:20.630Z,3.91
2018-02-01T04:30:46.745Z,3.94
2018-02-01T04:31:12.844Z,3.77
2018-02-01T04:31:38.942Z,3.96
2018-02-01T04:32:05.043Z,3.91
2018-02-01T04:32:31.165Z,3.83
2018-02-01T04:32:57.319Z,3.78
2018-02-01T04:33:23.412Z,3.78
2018-02-01T04:33:49.509Z,3.84
2018-02-01T04:34:15.619Z,3.8
2018-02-01T04:34:41.738Z,3.86
2018-02-01T04:35:07.840Z,3.86
2018-02-01T04:35:33.935Z,3.91
2018-02-01T04:36:00.042Z,3.86
2018-02-01T04:36:26.146Z,3.91
2018-02-01T04:36:52.270Z,3.88
2018-02-01T04:37:18.370Z,3.96
2018-02-01T04:37:44.467Z,3.77
2018-02-01T04:38:10.591Z,3.84
2018-02-01T04:38:36.708Z,3.84
2018-02-01T04:39:02.805Z,3.8
2018-02-01T04:39:28.905Z,3.78
2018-02-01T04:39:55.067Z,3.83
2018-02-01T04:40:21.117Z,3.81
2018-02-01T04:40:47.223Z,3.77
2018-02-01T04:41:13.322Z,3.78
2018-02-01T04:41:39.421Z,3.77
2018-02-01T04:42:05.530Z,3.81
2018-02-01T04:42:31.660Z,3.84
2018-02-01T04:42:57.775Z,3.78
2018-02-01T04:43:23.875Z,3.74
2018-02-01T04:43:49.977Z,3.8
2018-02-01T04:44:16.108Z,3.94
2018-02-01T04:44:42.235Z,3.83
2018-02-01T04:45:08.364Z,3.74
2018-02-01T04:45:34.458Z,3.86
2018-02-01T04:46:00.588Z,3.69
2018-02-01T04:46:26.693Z,3.8
2018-02-01T04:46:52.819Z,3.8
2018-02-01T04:47:18.915Z,3.74
2018-02-01T04:47:45.038Z,3.74
2018-02-01T04:48:11.140Z,3.8
2018-02-01T04:48:37.282Z,3.76
2018-02-01T04:49:03.362Z,3.8
2018-02-01T04:49:29.478Z,3.83
2018-02-01T04:49:55.605Z,3.78
2018-02-01T04:50:21.711Z,3.76
2018-02-01T04:50:47.831Z,3.81
2018-02-01T04:51:13.935Z,3.77
2018-02-01T04:51:40.037Z,3.73
2018-02-01T04:52:06.174Z,3.74
2018-02-01T04:52:32.269Z,3.74
2018-02-01T04:52:58.367Z,3.73
2018-02-01T04:53:24.487Z,3.86
2018-02-01T04:53:50.618Z,3.8
2018-02-01T04:54:16.767Z,3.81
2018-02-01T04:54:42.857Z,3.87
2018-02-01T04:55:08.951Z,3.8
2018-02-01T04:55:35.067Z,3.78
2018-02-01T04:56:01.186Z,3.73
2018-02-01T04:56:27.306Z,3.81
2018-02-01T04:56:53.414Z,3.68
2018-02-01T04:57:19.518Z,3.74
2018-02-01T04:57:45.638Z,3.8
2018-02-01T04:58:11.747Z,3.78
2018-02-01T04:58:37.843Z,3.78
2018-02-01T04:59:03.942Z,3.77
2018-02-01T04:59:30.046Z,3.77
2018-02-01T04:59:56.198Z,3.78
2018-02-01T05:00:22.295Z,3.86
2018-02-01T05:00:48.398Z,3.86
2018-02-01T05:01:14.506Z,3.77
2018-02-01T05:01:40.624Z,3.74
2018-02-01T05:02:06.738Z,3.8
2018-02-01T05:02:32.838Z,3.77
2018-02-01T05:02:58.933Z,3.78
2018-02-01T05:03:25.051Z,3.8
2018-02-01T05:03:51.153Z,3.77
2018-02-01T05:04:17.247Z,3.76
2018-02-01T05:04:43.349Z,3.78
2018-02-01T05:05:09.469Z,3.83
2018-02-01T05:05:35.572Z,3.78
2018-02-01T05:06:01.672Z,3.66
2018-02-01T05:06:27.766Z,3.69
2018-02-01T05:06:53.865Z,3.68
2018-02-01T05:07:19.969Z,3.7
2018-02-01T05:07:46.068Z,3.77
2018-02-01T05:08:12.164Z,3.81
2018-02-01T05:08:38.274Z,3.78
2018-02-01T05:09:04.368Z,3.6
2018-02-01T05:09:30.465Z,3.7
2018-02-01T05:09:56.567Z,3.78
2018-02-01T05:10:22.666Z,3.77
2018-02-01T05:10:48.762Z,3.78
2018-02-01T05:11:14.866Z,3.78
2018-02-01T05:11:40.978Z,3.77
2018-02-01T05:12:07.082Z,3.74
2018-02-01T05:12:33.182Z,3.77
2018-02-01T05:12:59.277Z,3.8
2018-02-01T05:13:25.378Z,3.76
2018-02-01T05:13:51.478Z,3.81
2018-02-01T05:14:17.590Z,3.77
2018-02-01T05:14:43.694Z,3.73
2018-02-01T05:15:09.801Z,3.69
2018-02-01T05:15:35.899Z,3.73
2018-02-01T05:16:02.004Z,3.66
2018-02-01T05:16:28.107Z,3.76
2018-02-01T05:16:54.218Z,3.78
2018-02-01T05:17:20.316Z,3.77
2018-02-01T05:17:46.419Z,3.76
2018-02-01T05:18:12.513Z,3.81
2018-02-01T05:18:38.617Z,3.81
2018-02-01T05:19:04.711Z,3.83
2018-02-01T05:19:30.809Z,3.77
2018-02-01T05:19:56.908Z,3.74
2018-02-01T05:20:23.011Z,3.81
2018-02-01T05:20:49.115Z,3.86
2018-02-01T05:21:15.212Z,3.76
2018-02-01T05:21:41.314Z,3.77
2018-02-01T05:22:07.418Z,3.7
2018-02-01T05:22:33.520Z,3.81
2018-02-01T05:22:59.616Z,3.77
2018-02-01T05:23:25.729Z,3.77
2018-02-01T05:23:51.828Z,3.8
2018-02-01T05:24:17.920Z,3.77
2018-02-01T05:24:44.030Z,3.73
2018-02-01T05:25:10.123Z,3.83
2018-02-01T05:25:36.222Z,3.81
2018-02-01T05:26:02.344Z,3.8
2018-02-01T05:26:28.444Z,3.8
2018-02-01T05:26:54.537Z,3.76
2018-02-01T05:27:20.644Z,3.84
2018-02-01T05:27:46.744Z,3.78
2018-02-01T05:28:12.842Z,3.77
2018-02-01T05:28:38.945Z,3.69
2018-02-01T05:29:05.044Z,3.69
2018-02-01T05:29:31.140Z,3.83
2018-02-01T05:29:57.241Z,3.87
2018-02-01T05:30:23.357Z,3.86
2018-02-01T05:30:49.451Z,3.88
2018-02-01T05:31:15.550Z,3.91
2018-02-01T05:31:41.654Z,3.77
2018-02-01T05:32:07.755Z,3.69
2018-02-01T05:32:33.863Z,3.77
2018-02-01T05:32:59.966Z,3.7
2018-02-01T05:33:26.063Z,3.74
2018-02-01T05:33:52.161Z,3.78
2018-02-01T05:34:18.263Z,3.65
2018-02-01T05:34:44.357Z,3.78
2018-02-01T05:35:10.479Z,3.77
2018-02-01T05:35:36.597Z,3.76
2018-02-01T05:36:02.692Z,3.76
2018-02-01T05:36:28.789Z,3.8
2018-02-01T05:36:54.894Z,3.77
2018-02-01T05:37:20.991Z,3.81
2018-02-01T05:37:47.086Z,3.76
2018-02-01T05:38:13.190Z,3.74
2018-02-01T05:38:39.285Z,3.77
2018-02-01T05:39:05.390Z,3.69
2018-02-01T05:39:31.488Z,3.76
2018-02-01T05:39:57.605Z,3.81
2018-02-01T05:40:23.704Z,3.84
2018-02-01T05:40:49.801Z,3.58
2018-02-01T05:41:15.897Z,3.7
2018-02-01T05:41:42.000Z,3.66
2018-02-01T05:42:08.101Z,3.63
2018-02-01T05:42:34.197Z,3.7
2018-02-01T05:43:00.302Z,3.74
2018-02-01T05:43:26.423Z,3.63
2018-02-01T05:43:52.521Z,3.74
2018-02-01T05:44:18.626Z,3.7
2018-02-01T05:44:44.725Z,3.66
2018-02-01T05:45:10.826Z,3.69
2018-02-01T05:45:36.923Z,3.63
2018-02-01T05:46:03.044Z,3.6
2018-02-01T05:46:29.144Z,3.63
2018-02-01T05:46:55.246Z,3.69
2018-02-01T05:47:21.341Z,3.7
2018-02-01T05:47:47.437Z,3.63
2018-02-01T05:48:13.541Z,3.66
2018-02-01T05:48:39.637Z,3.65
2018-02-01T05:49:05.739Z,3.65
2018-02-01T05:49:31.840Z,3.66
2018-02-01T05:49:57.936Z,3.63
2018-02-01T05:50:24.035Z,3.69